sensor_id;sensor_type;location;lat;lon;timestamp;temperature;humidity
41628;DHT22;27321;50.816;6.054;2024-03-23T00:54:42;9.30;78.90
41628;DHT22;27321;50.816;6.054;2024-03-23T00:57:43;9.30;78.90
41628;DHT22;27321;50.816;6.054;2024-03-23T01:00:44;9.40;79.10
41628;DHT22;27321;50.816;6.054;2024-03-23T01:03:45;9.40;78.60
41628;DHT22;27321;50.816;6.054;2024-03-23T01:06:46;9.40;78.60
41628;DHT22;27321;50.816;6.054;2024-03-23T01:09:47;9.40;78.50
41628;DHT22;27321;50.816;6.054;2024-03-23T01:12:48;9.40;78.60
41628;DHT22;27321;50.816;6.054;2024-03-23T01:15:53;9.40;77.90
41628;DHT22;27321;50.816;6.054;2024-03-23T01:18:55;9.30;77.90
41628;DHT22;27321;50.816;6.054;2024-03-23T01:21:56;9.20;79.20
41628;DHT22;27321;50.816;6.054;2024-03-23T01:24:57;8.90;78.20
41628;DHT22;27321;50.816;6.054;2024-03-23T01:27:58;8.40;80.60
41628;DHT22;27321;50.816;6.054;2024-03-23T01:30:59;8.20;81.30
41628;DHT22;27321;50.816;6.054;2024-03-23T01:34:00;8.10;82.00
41628;DHT22;27321;50.816;6.054;2024-03-23T01:37:03;8.00;81.00
41628;DHT22;27321;50.816;6.054;2024-03-23T01:40:05;7.90;81.20
41628;DHT22;27321;50.816;6.054;2024-03-23T01:43:07;7.90;80.00
41628;DHT22;27321;50.816;6.054;2024-03-23T01:46:08;7.90;79.70
41628;DHT22;27321;50.816;6.054;2024-03-23T01:49:10;8.00;78.80
41628;DHT22;27321;50.816;6.054;2024-03-23T01:52:11;8.10;79.10
41628;DHT22;27321;50.816;6.054;2024-03-23T01:55:12;8.20;77.90
41628;DHT22;27321;50.816;6.054;2024-03-23T01:58:13;8.20;77.40
41628;DHT22;27321;50.816;6.054;2024-03-23T02:01:14;8.30;78.00
41628;DHT22;27321;50.816;6.054;2024-03-23T02:04:15;8.30;77.80
41628;DHT22;27321;50.816;6.054;2024-03-23T02:07:16;8.40;77.00
41628;DHT22;27321;50.816;6.054;2024-03-23T02:10:17;8.60;76.90
41628;DHT22;27321;50.816;6.054;2024-03-23T02:13:19;8.70;77.30
41628;DHT22;27321;50.816;6.054;2024-03-23T02:16:20;8.80;76.50
41628;DHT22;27321;50.816;6.054;2024-03-23T02:19:21;8.80;76.50
41628;DHT22;27321;50.816;6.054;2024-03-23T02:22:21;8.90;77.60
41628;DHT22;27321;50.816;6.054;2024-03-23T02:25:22;9.00;77.20
41628;DHT22;27321;50.816;6.054;2024-03-23T02:28:23;9.20;77.40
41628;DHT22;27321;50.816;6.054;2024-03-23T02:31:25;9.30;76.10
41628;DHT22;27321;50.816;6.054;2024-03-23T02:34:26;9.30;76.60
41628;DHT22;27321;50.816;6.054;2024-03-23T02:37:26;9.40;76.40
41628;DHT22;27321;50.816;6.054;2024-03-23T02:40:28;9.50;76.20
41628;DHT22;27321;50.816;6.054;2024-03-23T02:43:29;9.50;75.40
41628;DHT22;27321;50.816;6.054;2024-03-23T02:46:30;9.60;76.40
41628;DHT22;27321;50.816;6.054;2024-03-23T02:49:30;9.60;75.30
41628;DHT22;27321;50.816;6.054;2024-03-23T02:52:31;9.50;75.00
41628;DHT22;27321;50.816;6.054;2024-03-23T02:55:32;9.60;75.90
41628;DHT22;27321;50.816;6.054;2024-03-23T02:58:33;9.60;75.80
41628;DHT22;27321;50.816;6.054;2024-03-23T03:01:34;9.70;76.10
41628;DHT22;27321;50.816;6.054;2024-03-23T03:04:35;9.80;76.00
41628;DHT22;27321;50.816;6.054;2024-03-23T03:07:36;9.80;75.60
41628;DHT22;27321;50.816;6.054;2024-03-23T03:10:39;9.80;75.90
41628;DHT22;27321;50.816;6.054;2024-03-23T03:13:40;9.70;76.10
41628;DHT22;27321;50.816;6.054;2024-03-23T03:16:41;9.80;75.70
41628;DHT22;27321;50.816;6.054;2024-03-23T03:19:42;9.70;75.80
41628;DHT22;27321;50.816;6.054;2024-03-23T03:22:43;9.70;75.90
41628;DHT22;27321;50.816;6.054;2024-03-23T03:25:44;9.70;76.40
41628;DHT22;27321;50.816;6.054;2024-03-23T03:28:45;9.80;76.60
41628;DHT22;27321;50.816;6.054;2024-03-23T03:31:49;9.80;76.10
41628;DHT22;27321;50.816;6.054;2024-03-23T03:34:50;9.80;75.60
41628;DHT22;27321;50.816;6.054;2024-03-23T03:37:51;9.80;76.00
41628;DHT22;27321;50.816;6.054;2024-03-23T03:40:52;9.80;75.60
41628;DHT22;27321;50.816;6.054;2024-03-23T03:43:53;9.80;75.70
41628;DHT22;27321;50.816;6.054;2024-03-23T03:46:55;9.80;75.50
41628;DHT22;27321;50.816;6.054;2024-03-23T03:49:56;9.80;75.00
41628;DHT22;27321;50.816;6.054;2024-03-23T03:52:57;9.70;75.40
41628;DHT22;27321;50.816;6.054;2024-03-23T03:56:01;9.70;75.10
41628;DHT22;27321;50.816;6.054;2024-03-23T03:59:03;9.60;74.40
41628;DHT22;27321;50.816;6.054;2024-03-23T04:02:03;9.50;74.30
41628;DHT22;27321;50.816;6.054;2024-03-23T04:05:05;9.40;75.30
41628;DHT22;27321;50.816;6.054;2024-03-23T04:08:07;9.40;75.00
41628;DHT22;27321;50.816;6.054;2024-03-23T04:11:08;9.50;75.20
41628;DHT22;27321;50.816;6.054;2024-03-23T04:14:09;9.40;74.60
41628;DHT22;27321;50.816;6.054;2024-03-23T04:17:10;9.30;74.40
41628;DHT22;27321;50.816;6.054;2024-03-23T04:20:11;9.30;74.80
41628;DHT22;27321;50.816;6.054;2024-03-23T04:23:14;9.20;75.70
41628;DHT22;27321;50.816;6.054;2024-03-23T04:26:15;9.30;76.00
41628;DHT22;27321;50.816;6.054;2024-03-23T04:29:16;9.30;75.70
41628;DHT22;27321;50.816;6.054;2024-03-23T04:32:17;9.30;75.10
41628;DHT22;27321;50.816;6.054;2024-03-23T04:35:18;9.10;75.10
41628;DHT22;27321;50.816;6.054;2024-03-23T04:38:20;9.10;75.80
41628;DHT22;27321;50.816;6.054;2024-03-23T04:41:21;9.10;75.00
41628;DHT22;27321;50.816;6.054;2024-03-23T04:44:22;9.00;75.00
41628;DHT22;27321;50.816;6.054;2024-03-23T04:47:23;9.10;75.90
41628;DHT22;27321;50.816;6.054;2024-03-23T04:50:25;9.10;75.50
41628;DHT22;27321;50.816;6.054;2024-03-23T04:53:25;9.10;75.60
41628;DHT22;27321;50.816;6.054;2024-03-23T04:56:29;9.10;75.20
41628;DHT22;27321;50.816;6.054;2024-03-23T04:59:32;9.10;75.70
41628;DHT22;27321;50.816;6.054;2024-03-23T05:02:33;9.10;75.70
41628;DHT22;27321;50.816;6.054;2024-03-23T05:05:35;9.10;75.10
41628;DHT22;27321;50.816;6.054;2024-03-23T05:08:36;9.10;74.80
41628;DHT22;27321;50.816;6.054;2024-03-23T05:11:37;8.90;74.90
41628;DHT22;27321;50.816;6.054;2024-03-23T05:14:39;9.00;75.10
41628;DHT22;27321;50.816;6.054;2024-03-23T05:17:40;8.80;75.00
41628;DHT22;27321;50.816;6.054;2024-03-23T05:20:41;8.80;75.40
41628;DHT22;27321;50.816;6.054;2024-03-23T05:23:42;8.70;75.80
41628;DHT22;27321;50.816;6.054;2024-03-23T05:26:43;8.70;75.80
41628;DHT22;27321;50.816;6.054;2024-03-23T05:29:44;8.70;75.50
41628;DHT22;27321;50.816;6.054;2024-03-23T05:32:45;8.60;75.50
41628;DHT22;27321;50.816;6.054;2024-03-23T05:35:46;8.60;75.60
41628;DHT22;27321;50.816;6.054;2024-03-23T05:38:48;8.50;76.00
41628;DHT22;27321;50.816;6.054;2024-03-23T05:41:49;8.50;75.50
41628;DHT22;27321;50.816;6.054;2024-03-23T05:44:50;8.50;76.20
41628;DHT22;27321;50.816;6.054;2024-03-23T05:47:50;8.50;75.60
41628;DHT22;27321;50.816;6.054;2024-03-23T05:50:52;8.40;76.50
41628;DHT22;27321;50.816;6.054;2024-03-23T05:53:53;8.40;76.20
41628;DHT22;27321;50.816;6.054;2024-03-23T05:56:57;8.40;76.50
41628;DHT22;27321;50.816;6.054;2024-03-23T05:59:58;8.50;76.40
41628;DHT22;27321;50.816;6.054;2024-03-23T06:02:59;8.30;76.50
41628;DHT22;27321;50.816;6.054;2024-03-23T06:06:00;8.40;75.80
41628;DHT22;27321;50.816;6.054;2024-03-23T06:09:02;8.40;75.90
41628;DHT22;27321;50.816;6.054;2024-03-23T06:12:04;8.40;75.60
41628;DHT22;27321;50.816;6.054;2024-03-23T06:15:06;8.30;76.30
41628;DHT22;27321;50.816;6.054;2024-03-23T06:18:10;8.40;76.00
41628;DHT22;27321;50.816;6.054;2024-03-23T06:21:15;8.40;76.40
41628;DHT22;27321;50.816;6.054;2024-03-23T06:24:16;8.40;76.50
41628;DHT22;27321;50.816;6.054;2024-03-23T06:27:17;8.50;76.50
41628;DHT22;27321;50.816;6.054;2024-03-23T06:30:18;8.40;76.80
41628;DHT22;27321;50.816;6.054;2024-03-23T06:33:19;8.30;77.20
41628;DHT22;27321;50.816;6.054;2024-03-23T06:36:19;8.40;76.90
41628;DHT22;27321;50.816;6.054;2024-03-23T06:39:20;8.40;77.10
41628;DHT22;27321;50.816;6.054;2024-03-23T06:42:21;8.30;77.00
41628;DHT22;27321;50.816;6.054;2024-03-23T06:45:22;8.40;77.40
41628;DHT22;27321;50.816;6.054;2024-03-23T06:48:23;8.40;77.20
41628;DHT22;27321;50.816;6.054;2024-03-23T06:51:24;8.50;77.30
41628;DHT22;27321;50.816;6.054;2024-03-23T06:54:26;8.60;77.50
41628;DHT22;27321;50.816;6.054;2024-03-23T06:57:27;8.70;77.30
41628;DHT22;27321;50.816;6.054;2024-03-23T07:00:28;8.70;76.90
41628;DHT22;27321;50.816;6.054;2024-03-23T07:03:29;8.70;77.10
41628;DHT22;27321;50.816;6.054;2024-03-23T07:06:33;8.80;77.30
41628;DHT22;27321;50.816;6.054;2024-03-23T07:09:34;8.90;76.80
41628;DHT22;27321;50.816;6.054;2024-03-23T07:12:37;8.80;77.00
41628;DHT22;27321;50.816;6.054;2024-03-23T07:15:38;8.80;76.90
41628;DHT22;27321;50.816;6.054;2024-03-23T07:18:39;8.80;77.10
41628;DHT22;27321;50.816;6.054;2024-03-23T07:21:40;8.80;76.50
41628;DHT22;27321;50.816;6.054;2024-03-23T07:24:41;8.90;76.70
41628;DHT22;27321;50.816;6.054;2024-03-23T07:27:42;9.00;76.50
41628;DHT22;27321;50.816;6.054;2024-03-23T07:30:43;9.10;76.30
41628;DHT22;27321;50.816;6.054;2024-03-23T07:33:48;9.10;76.90
41628;DHT22;27321;50.816;6.054;2024-03-23T07:36:49;9.20;76.50
41628;DHT22;27321;50.816;6.054;2024-03-23T07:39:50;9.30;76.70
41628;DHT22;27321;50.816;6.054;2024-03-23T07:42:51;9.30;76.20
41628;DHT22;27321;50.816;6.054;2024-03-23T07:45:55;9.30;76.40
41628;DHT22;27321;50.816;6.054;2024-03-23T07:48:56;9.20;75.60
41628;DHT22;27321;50.816;6.054;2024-03-23T07:51:57;9.20;75.80
41628;DHT22;27321;50.816;6.054;2024-03-23T07:54:58;9.20;75.30
41628;DHT22;27321;50.816;6.054;2024-03-23T07:57:59;9.30;75.30
41628;DHT22;27321;50.816;6.054;2024-03-23T08:01:08;9.30;74.60
41628;DHT22;27321;50.816;6.054;2024-03-23T08:04:11;9.30;73.80
41628;DHT22;27321;50.816;6.054;2024-03-23T08:07:12;9.20;73.70
41628;DHT22;27321;50.816;6.054;2024-03-23T08:10:13;9.20;73.30
41628;DHT22;27321;50.816;6.054;2024-03-23T08:13:18;9.10;72.80
41628;DHT22;27321;50.816;6.054;2024-03-23T08:16:19;9.10;73.60
41628;DHT22;27321;50.816;6.054;2024-03-23T08:19:20;9.10;73.10
41628;DHT22;27321;50.816;6.054;2024-03-23T08:22:21;9.10;73.00
41628;DHT22;27321;50.816;6.054;2024-03-23T08:25:22;9.20;73.60
41628;DHT22;27321;50.816;6.054;2024-03-23T08:28:23;9.20;72.90
41628;DHT22;27321;50.816;6.054;2024-03-23T08:31:25;9.20;72.80
41628;DHT22;27321;50.816;6.054;2024-03-23T08:34:25;9.20;73.20
41628;DHT22;27321;50.816;6.054;2024-03-23T08:37:26;9.30;72.70
41628;DHT22;27321;50.816;6.054;2024-03-23T08:40:27;9.30;72.70
41628;DHT22;27321;50.816;6.054;2024-03-23T08:43:29;9.30;72.90
41628;DHT22;27321;50.816;6.054;2024-03-23T08:46:31;9.40;72.90
41628;DHT22;27321;50.816;6.054;2024-03-23T08:49:32;9.40;73.00
41628;DHT22;27321;50.816;6.054;2024-03-23T08:52:33;9.40;73.20
41628;DHT22;27321;50.816;6.054;2024-03-23T08:55:34;9.50;72.20
41628;DHT22;27321;50.816;6.054;2024-03-23T08:58:36;9.50;71.10
41628;DHT22;27321;50.816;6.054;2024-03-23T09:01:37;9.40;72.10
41628;DHT22;27321;50.816;6.054;2024-03-23T09:04:38;9.30;71.20
41628;DHT22;27321;50.816;6.054;2024-03-23T09:07:39;9.40;71.10
41628;DHT22;27321;50.816;6.054;2024-03-23T09:10:41;9.40;70.80
41628;DHT22;27321;50.816;6.054;2024-03-23T09:13:42;9.50;71.10
41628;DHT22;27321;50.816;6.054;2024-03-23T09:16:43;9.60;70.60
41628;DHT22;27321;50.816;6.054;2024-03-23T09:19:44;9.70;70.10
41628;DHT22;27321;50.816;6.054;2024-03-23T09:22:45;9.50;68.70
41628;DHT22;27321;50.816;6.054;2024-03-23T09:25:49;9.40;69.50
41628;DHT22;27321;50.816;6.054;2024-03-23T09:28:50;9.40;70.30
41628;DHT22;27321;50.816;6.054;2024-03-23T09:31:51;9.30;71.40
41628;DHT22;27321;50.816;6.054;2024-03-23T09:34:52;9.30;70.70
41628;DHT22;27321;50.816;6.054;2024-03-23T09:37:53;9.20;70.50
41628;DHT22;27321;50.816;6.054;2024-03-23T09:40:57;9.10;70.70
41628;DHT22;27321;50.816;6.054;2024-03-23T09:43:58;9.00;70.10
41628;DHT22;27321;50.816;6.054;2024-03-23T09:46:59;8.90;70.00
41628;DHT22;27321;50.816;6.054;2024-03-23T09:50:05;8.80;70.00
41628;DHT22;27321;50.816;6.054;2024-03-23T09:53:07;8.80;69.60
41628;DHT22;27321;50.816;6.054;2024-03-23T09:56:09;8.70;70.00
41628;DHT22;27321;50.816;6.054;2024-03-23T09:59:09;8.80;71.00
41628;DHT22;27321;50.816;6.054;2024-03-23T10:02:11;8.90;71.10
41628;DHT22;27321;50.816;6.054;2024-03-23T10:05:21;9.10;71.40
41628;DHT22;27321;50.816;6.054;2024-03-23T10:08:29;9.20;70.00
41628;DHT22;27321;50.816;6.054;2024-03-23T10:11:31;9.30;69.80
41628;DHT22;27321;50.816;6.054;2024-03-23T10:14:32;9.50;70.00
41628;DHT22;27321;50.816;6.054;2024-03-23T10:17:33;9.70;70.10
41628;DHT22;27321;50.816;6.054;2024-03-23T10:20:34;9.90;69.90
41628;DHT22;27321;50.816;6.054;2024-03-23T10:23:36;9.90;68.60
41628;DHT22;27321;50.816;6.054;2024-03-23T10:26:56;9.80;68.20
41628;DHT22;27321;50.816;6.054;2024-03-23T10:30:11;9.80;68.00
41628;DHT22;27321;50.816;6.054;2024-03-23T10:33:15;9.80;68.00
41628;DHT22;27321;50.816;6.054;2024-03-23T10:36:18;9.60;67.60
41628;DHT22;27321;50.816;6.054;2024-03-23T10:39:21;9.60;66.60
41628;DHT22;27321;50.816;6.054;2024-03-23T10:42:24;9.50;66.30
41628;DHT22;27321;50.816;6.054;2024-03-23T10:45:25;9.50;67.10
41628;DHT22;27321;50.816;6.054;2024-03-23T10:48:26;9.60;66.30
41628;DHT22;27321;50.816;6.054;2024-03-23T10:51:27;9.60;66.10
41628;DHT22;27321;50.816;6.054;2024-03-23T10:54:30;9.70;65.90
41628;DHT22;27321;50.816;6.054;2024-03-23T10:57:41;9.90;67.30
41628;DHT22;27321;50.816;6.054;2024-03-23T11:00:45;10.00;64.90
41628;DHT22;27321;50.816;6.054;2024-03-23T11:03:46;10.10;64.70
41628;DHT22;27321;50.816;6.054;2024-03-23T11:06:47;10.00;62.10
41628;DHT22;27321;50.816;6.054;2024-03-23T11:09:48;10.10;63.20
41628;DHT22;27321;50.816;6.054;2024-03-23T11:12:51;10.10;62.50
41628;DHT22;27321;50.816;6.054;2024-03-23T11:15:53;10.20;63.00
41628;DHT22;27321;50.816;6.054;2024-03-23T11:18:54;10.30;62.50
41628;DHT22;27321;50.816;6.054;2024-03-23T11:22:40;10.50;63.90
41628;DHT22;27321;50.816;6.054;2024-03-23T11:25:43;10.60;63.30
41628;DHT22;27321;50.816;6.054;2024-03-23T11:28:44;10.70;62.80
41628;DHT22;27321;50.816;6.054;2024-03-23T11:31:49;10.70;61.30
41628;DHT22;27321;50.816;6.054;2024-03-23T11:34:52;10.60;61.60
41628;DHT22;27321;50.816;6.054;2024-03-23T11:38:06;10.70;62.30
41628;DHT22;27321;50.816;6.054;2024-03-23T11:41:18;10.80;61.00
41628;DHT22;27321;50.816;6.054;2024-03-23T11:44:22;10.70;60.60
41628;DHT22;27321;50.816;6.054;2024-03-23T11:47:26;10.80;59.40
41628;DHT22;27321;50.816;6.054;2024-03-23T11:50:27;10.70;58.50
41628;DHT22;27321;50.816;6.054;2024-03-23T11:53:28;10.70;57.40
41628;DHT22;27321;50.816;6.054;2024-03-23T11:56:29;10.70;58.90
41628;DHT22;27321;50.816;6.054;2024-03-23T11:59:41;10.60;58.20
41628;DHT22;27321;50.816;6.054;2024-03-23T12:02:42;10.60;59.40
41628;DHT22;27321;50.816;6.054;2024-03-23T12:05:50;10.30;61.20
41628;DHT22;27321;50.816;6.054;2024-03-23T12:09:05;10.00;61.20
41628;DHT22;27321;50.816;6.054;2024-03-23T12:12:16;9.80;62.30
41628;DHT22;27321;50.816;6.054;2024-03-23T12:15:18;9.80;63.00
41628;DHT22;27321;50.816;6.054;2024-03-23T12:18:26;9.80;62.50
41628;DHT22;27321;50.816;6.054;2024-03-23T12:21:27;10.00;62.80
41628;DHT22;27321;50.816;6.054;2024-03-23T12:24:28;10.10;63.20
41628;DHT22;27321;50.816;6.054;2024-03-23T12:27:29;10.20;62.70
41628;DHT22;27321;50.816;6.054;2024-03-23T12:30:30;10.20;62.20
41628;DHT22;27321;50.816;6.054;2024-03-23T12:33:31;10.30;64.20
41628;DHT22;27321;50.816;6.054;2024-03-23T12:36:32;10.30;62.60
41628;DHT22;27321;50.816;6.054;2024-03-23T12:39:33;10.20;63.00
41628;DHT22;27321;50.816;6.054;2024-03-23T12:42:35;10.20;62.00
41628;DHT22;27321;50.816;6.054;2024-03-23T12:45:36;10.10;62.30
41628;DHT22;27321;50.816;6.054;2024-03-23T12:48:37;10.20;62.90
41628;DHT22;27321;50.816;6.054;2024-03-23T12:51:38;10.20;62.10
41628;DHT22;27321;50.816;6.054;2024-03-23T12:54:39;10.10;63.70
41628;DHT22;27321;50.816;6.054;2024-03-23T12:57:40;10.10;64.20
41628;DHT22;27321;50.816;6.054;2024-03-23T13:00:41;10.30;65.00
41628;DHT22;27321;50.816;6.054;2024-03-23T13:03:42;10.40;64.10
41628;DHT22;27321;50.816;6.054;2024-03-23T13:06:45;10.60;64.00
41628;DHT22;27321;50.816;6.054;2024-03-23T13:09:46;10.40;63.40
41628;DHT22;27321;50.816;6.054;2024-03-23T13:12:47;10.20;64.30
41628;DHT22;27321;50.816;6.054;2024-03-23T13:15:51;10.00;65.30
41628;DHT22;27321;50.816;6.054;2024-03-23T13:18:55;9.80;65.20
41628;DHT22;27321;50.816;6.054;2024-03-23T13:22:00;9.70;65.50
41628;DHT22;27321;50.816;6.054;2024-03-23T13:25:03;9.50;64.50
41628;DHT22;27321;50.816;6.054;2024-03-23T13:28:04;9.50;65.60
41628;DHT22;27321;50.816;6.054;2024-03-23T13:31:05;9.60;65.80
41628;DHT22;27321;50.816;6.054;2024-03-23T13:34:06;9.60;65.10
41628;DHT22;27321;50.816;6.054;2024-03-23T13:37:07;9.70;65.80
41628;DHT22;27321;50.816;6.054;2024-03-23T13:40:09;9.80;65.80
41628;DHT22;27321;50.816;6.054;2024-03-23T13:43:11;10.00;64.30
41628;DHT22;27321;50.816;6.054;2024-03-23T13:46:12;10.20;65.30
41628;DHT22;27321;50.816;6.054;2024-03-23T13:49:29;10.40;64.80
41628;DHT22;27321;50.816;6.054;2024-03-23T13:52:31;10.50;64.50
41628;DHT22;27321;50.816;6.054;2024-03-23T13:55:32;10.60;63.90
41628;DHT22;27321;50.816;6.054;2024-03-23T13:58:33;10.50;61.80
41628;DHT22;27321;50.816;6.054;2024-03-23T14:01:43;10.40;61.40
41628;DHT22;27321;50.816;6.054;2024-03-23T14:04:47;10.30;60.70
41628;DHT22;27321;50.816;6.054;2024-03-23T14:07:48;10.00;60.50
41628;DHT22;27321;50.816;6.054;2024-03-23T14:10:49;10.00;61.10
41628;DHT22;27321;50.816;6.054;2024-03-23T14:13:53;10.10;61.20
41628;DHT22;27321;50.816;6.054;2024-03-23T14:16:57;10.30;60.90
41628;DHT22;27321;50.816;6.054;2024-03-23T14:19:58;10.50;60.20
41628;DHT22;27321;50.816;6.054;2024-03-23T14:23:03;10.50;60.00
41628;DHT22;27321;50.816;6.054;2024-03-23T14:26:04;10.40;60.20
41628;DHT22;27321;50.816;6.054;2024-03-23T14:29:05;10.40;60.60
41628;DHT22;27321;50.816;6.054;2024-03-23T14:32:06;10.20;61.30
41628;DHT22;27321;50.816;6.054;2024-03-23T14:35:07;10.20;62.00
41628;DHT22;27321;50.816;6.054;2024-03-23T14:38:10;10.20;61.80
41628;DHT22;27321;50.816;6.054;2024-03-23T14:41:11;10.00;62.10
41628;DHT22;27321;50.816;6.054;2024-03-23T14:44:12;9.80;62.70
41628;DHT22;27321;50.816;6.054;2024-03-23T14:47:19;9.70;63.20
41628;DHT22;27321;50.816;6.054;2024-03-23T14:50:23;9.60;63.30
41628;DHT22;27321;50.816;6.054;2024-03-23T14:53:24;9.50;63.80
41628;DHT22;27321;50.816;6.054;2024-03-23T14:56:24;9.40;63.20
41628;DHT22;27321;50.816;6.054;2024-03-23T14:59:25;9.30;63.00
41628;DHT22;27321;50.816;6.054;2024-03-23T15:02:26;9.40;63.90
41628;DHT22;27321;50.816;6.054;2024-03-23T15:05:31;9.50;63.40
41628;DHT22;27321;50.816;6.054;2024-03-23T15:08:32;9.60;63.20
41628;DHT22;27321;50.816;6.054;2024-03-23T15:11:33;9.60;63.60
41628;DHT22;27321;50.816;6.054;2024-03-23T15:14:34;9.60;63.50
41628;DHT22;27321;50.816;6.054;2024-03-23T15:17:35;9.60;62.80
41628;DHT22;27321;50.816;6.054;2024-03-23T15:20:37;9.50;65.30
41628;DHT22;27321;50.816;6.054;2024-03-23T15:23:38;9.40;66.70
41628;DHT22;27321;50.816;6.054;2024-03-23T15:26:39;9.30;66.20
41628;DHT22;27321;50.816;6.054;2024-03-23T15:29:42;8.90;65.20
41628;DHT22;27321;50.816;6.054;2024-03-23T15:32:46;8.80;67.50
41628;DHT22;27321;50.816;6.054;2024-03-23T15:35:47;8.90;68.80
41628;DHT22;27321;50.816;6.054;2024-03-23T15:38:48;9.20;69.40
41628;DHT22;27321;50.816;6.054;2024-03-23T15:41:49;9.30;67.00
41628;DHT22;27321;50.816;6.054;2024-03-23T15:44:53;9.40;68.80
41628;DHT22;27321;50.816;6.054;2024-03-23T15:47:54;9.60;68.70
41628;DHT22;27321;50.816;6.054;2024-03-23T15:50:57;9.60;67.90
41628;DHT22;27321;50.816;6.054;2024-03-23T15:54:01;9.50;68.00
41628;DHT22;27321;50.816;6.054;2024-03-23T15:57:05;9.50;67.60
41628;DHT22;27321;50.816;6.054;2024-03-23T16:00:07;9.30;66.60
41628;DHT22;27321;50.816;6.054;2024-03-23T16:03:13;9.40;67.90
41628;DHT22;27321;50.816;6.054;2024-03-23T16:06:14;9.40;68.90
41628;DHT22;27321;50.816;6.054;2024-03-23T16:09:15;9.60;69.40
41628;DHT22;27321;50.816;6.054;2024-03-23T16:12:17;9.60;68.10
41628;DHT22;27321;50.816;6.054;2024-03-23T16:15:18;9.60;68.20
41628;DHT22;27321;50.816;6.054;2024-03-23T16:18:19;9.70;68.30
41628;DHT22;27321;50.816;6.054;2024-03-23T16:21:19;9.70;67.90
41628;DHT22;27321;50.816;6.054;2024-03-23T16:24:21;9.70;68.40
41628;DHT22;27321;50.816;6.054;2024-03-23T16:27:22;9.70;67.50
41628;DHT22;27321;50.816;6.054;2024-03-23T16:30:23;9.60;66.70
41628;DHT22;27321;50.816;6.054;2024-03-23T16:33:29;9.70;66.70
41628;DHT22;27321;50.816;6.054;2024-03-23T16:36:33;9.70;67.10
41628;DHT22;27321;50.816;6.054;2024-03-23T16:39:34;9.80;67.80
41628;DHT22;27321;50.816;6.054;2024-03-23T16:42:36;9.90;66.20
41628;DHT22;27321;50.816;6.054;2024-03-23T16:45:37;9.80;67.20
41628;DHT22;27321;50.816;6.054;2024-03-23T16:48:39;9.90;67.30
41628;DHT22;27321;50.816;6.054;2024-03-23T16:51:40;9.90;67.90
41628;DHT22;27321;50.816;6.054;2024-03-23T16:54:40;10.00;67.20
41628;DHT22;27321;50.816;6.054;2024-03-23T16:57:41;10.10;67.40
41628;DHT22;27321;50.816;6.054;2024-03-23T17:00:42;10.20;67.40
41628;DHT22;27321;50.816;6.054;2024-03-23T17:03:46;10.20;66.70
41628;DHT22;27321;50.816;6.054;2024-03-23T17:06:49;10.20;66.70
41628;DHT22;27321;50.816;6.054;2024-03-23T17:09:50;10.20;67.10
41628;DHT22;27321;50.816;6.054;2024-03-23T17:12:52;10.20;66.60
41628;DHT22;27321;50.816;6.054;2024-03-23T17:15:53;10.10;67.20
41628;DHT22;27321;50.816;6.054;2024-03-23T17:18:54;10.10;67.20
41628;DHT22;27321;50.816;6.054;2024-03-23T17:21:56;10.10;66.70
41628;DHT22;27321;50.816;6.054;2024-03-23T17:24:57;10.10;66.40
41628;DHT22;27321;50.816;6.054;2024-03-23T17:27:58;10.10;66.50
41628;DHT22;27321;50.816;6.054;2024-03-23T17:30:59;10.10;66.10
41628;DHT22;27321;50.816;6.054;2024-03-23T17:34:00;10.00;65.10
41628;DHT22;27321;50.816;6.054;2024-03-23T17:37:02;9.90;63.40
41628;DHT22;27321;50.816;6.054;2024-03-23T17:40:04;9.70;62.80
41628;DHT22;27321;50.816;6.054;2024-03-23T17:43:08;9.20;65.40
41628;DHT22;27321;50.816;6.054;2024-03-23T17:46:09;8.60;68.80
41628;DHT22;27321;50.816;6.054;2024-03-23T17:49:10;8.40;72.80
41628;DHT22;27321;50.816;6.054;2024-03-23T17:52:11;8.30;72.40
41628;DHT22;27321;50.816;6.054;2024-03-23T17:55:12;8.50;74.70
41628;DHT22;27321;50.816;6.054;2024-03-23T17:58:13;8.80;75.20
41628;DHT22;27321;50.816;6.054;2024-03-23T18:01:17;8.80;75.60
41628;DHT22;27321;50.816;6.054;2024-03-23T18:04:22;8.90;75.60
41628;DHT22;27321;50.816;6.054;2024-03-23T18:07:23;9.00;75.70
41628;DHT22;27321;50.816;6.054;2024-03-23T18:10:24;8.90;75.10
41628;DHT22;27321;50.816;6.054;2024-03-23T18:13:25;8.90;75.00
41628;DHT22;27321;50.816;6.054;2024-03-23T18:16:26;8.90;75.00
41628;DHT22;27321;50.816;6.054;2024-03-23T18:19:27;8.90;75.10
41628;DHT22;27321;50.816;6.054;2024-03-23T18:22:28;8.90;74.70
41628;DHT22;27321;50.816;6.054;2024-03-23T18:25:29;8.80;73.90
41628;DHT22;27321;50.816;6.054;2024-03-23T18:28:30;8.80;73.90
41628;DHT22;27321;50.816;6.054;2024-03-23T18:31:31;8.80;74.10
41628;DHT22;27321;50.816;6.054;2024-03-23T18:34:32;8.60;74.40
41628;DHT22;27321;50.816;6.054;2024-03-23T18:37:33;8.60;74.50
41628;DHT22;27321;50.816;6.054;2024-03-23T18:40:34;8.60;74.50
41628;DHT22;27321;50.816;6.054;2024-03-23T18:43:35;8.70;74.50
41628;DHT22;27321;50.816;6.054;2024-03-23T18:46:36;8.60;73.60
41628;DHT22;27321;50.816;6.054;2024-03-23T18:49:37;8.70;74.30
41628;DHT22;27321;50.816;6.054;2024-03-23T18:52:39;8.70;74.60
41628;DHT22;27321;50.816;6.054;2024-03-23T18:55:41;8.80;74.00
41628;DHT22;27321;50.816;6.054;2024-03-23T18:58:51;8.70;72.30
41628;DHT22;27321;50.816;6.054;2024-03-23T19:01:52;8.30;72.50
41628;DHT22;27321;50.816;6.054;2024-03-23T19:04:54;8.30;73.60
41628;DHT22;27321;50.816;6.054;2024-03-23T19:07:55;8.30;73.70
41628;DHT22;27321;50.816;6.054;2024-03-23T19:11:01;8.30;74.00
41628;DHT22;27321;50.816;6.054;2024-03-23T19:14:02;8.30;73.50
41628;DHT22;27321;50.816;6.054;2024-03-23T19:17:03;8.30;73.60
41628;DHT22;27321;50.816;6.054;2024-03-23T19:20:05;8.40;73.40
41628;DHT22;27321;50.816;6.054;2024-03-23T19:23:09;8.40;73.60
41628;DHT22;27321;50.816;6.054;2024-03-23T19:26:11;8.40;73.30
41628;DHT22;27321;50.816;6.054;2024-03-23T19:29:12;8.50;73.10
41628;DHT22;27321;50.816;6.054;2024-03-23T19:32:13;8.50;73.00
41628;DHT22;27321;50.816;6.054;2024-03-23T19:35:14;8.40;73.00
41628;DHT22;27321;50.816;6.054;2024-03-23T19:38:16;8.40;72.50
41628;DHT22;27321;50.816;6.054;2024-03-23T19:41:17;8.30;73.50
41628;DHT22;27321;50.816;6.054;2024-03-23T19:44:18;8.30;72.40
41628;DHT22;27321;50.816;6.054;2024-03-23T19:47:19;8.20;72.50
41628;DHT22;27321;50.816;6.054;2024-03-23T19:50:20;8.10;72.50
41628;DHT22;27321;50.816;6.054;2024-03-23T19:53:21;8.10;72.80
41628;DHT22;27321;50.816;6.054;2024-03-23T19:56:22;8.10;72.80
41628;DHT22;27321;50.816;6.054;2024-03-23T19:59:23;8.10;73.20
41628;DHT22;27321;50.816;6.054;2024-03-23T20:02:25;8.00;72.90
41628;DHT22;27321;50.816;6.054;2024-03-23T20:05:26;8.00;73.10
41628;DHT22;27321;50.816;6.054;2024-03-23T20:08:28;8.10;72.90
41628;DHT22;27321;50.816;6.054;2024-03-23T20:11:30;8.00;73.40
41628;DHT22;27321;50.816;6.054;2024-03-23T20:14:31;8.00;72.80
41628;DHT22;27321;50.816;6.054;2024-03-23T20:17:32;8.00;73.10